sensor_id;sensor_type;location;lat;lon;timestamp;pressure;altitude;pressure_sealevel;temperature;humidity
22283;BME280;11310;51.528;21.204;2023-07-02T00:01:29;98843.38;;;17.83;100.00
22283;BME280;11310;51.528;21.204;2023-07-02T00:04:00;98837.06;;;17.84;100.00
22283;BME280;11310;51.528;21.204;2023-07-02T00:06:29;98838.91;;;17.84;100.00
22283;BME280;11310;51.528;21.204;2023-07-02T00:09:00;98833.44;;;17.85;100.00
22283;BME280;11310;51.528;21.204;2023-07-02T00:11:30;98837.22;;;17.83;100.00
22283;BME280;11310;51.528;21.204;2023-07-02T00:14:02;98843.50;;;17.82;100.00
22283;BME280;11310;51.528;21.204;2023-07-02T00:16:32;98840.00;;;17.81;100.00
22283;BME280;11310;51.528;21.204;2023-07-02T00:19:04;98847.97;;;17.81;100.00
22283;BME280;11310;51.528;21.204;2023-07-02T00:21:34;98844.34;;;17.82;100.00
22283;BME280;11310;51.528;21.204;2023-07-02T00:24:05;98838.75;;;17.85;100.00
22283;BME280;11310;51.528;21.204;2023-07-02T00:26:34;98839.72;;;17.84;100.00
22283;BME280;11310;51.528;21.204;2023-07-02T00:29:06;98842.66;;;17.81;100.00
22283;BME280;11310;51.528;21.204;2023-07-02T00:31:35;98842.97;;;17.78;100.00
22283;BME280;11310;51.528;21.204;2023-07-02T00:43:58;98835.06;;;17.59;100.00
22283;BME280;11310;51.528;21.204;2023-07-02T00:46:16;98832.56;;;17.58;100.00
22283;BME280;11310;51.528;21.204;2023-07-02T00:48:49;98823.88;;;17.56;100.00
22283;BME280;11310;51.528;21.204;2023-07-02T00:54:32;98833.28;;;17.50;100.00
22283;BME280;11310;51.528;21.204;2023-07-02T00:57:01;98831.28;;;17.52;100.00
22283;BME280;11310;51.528;21.204;2023-07-02T00:59:31;98820.69;;;17.52;100.00
22283;BME280;11310;51.528;21.204;2023-07-02T01:02:04;98832.88;;;17.45;100.00
22283;BME280;11310;51.528;21.204;2023-07-02T01:07:25;98831.03;;;17.36;100.00
22283;BME280;11310;51.528;21.204;2023-07-02T01:09:54;98827.41;;;17.37;100.00
22283;BME280;11310;51.528;21.204;2023-07-02T01:12:23;98824.03;;;17.35;100.00
22283;BME280;11310;51.528;21.204;2023-07-02T01:14:53;98818.31;;;17.30;100.00
22283;BME280;11310;51.528;21.204;2023-07-02T01:17:26;98814.28;;;17.26;100.00
22283;BME280;11310;51.528;21.204;2023-07-02T01:20:08;98809.41;;;17.22;100.00
22283;BME280;11310;51.528;21.204;2023-07-02T01:22:37;98821.13;;;17.19;100.00
22283;BME280;11310;51.528;21.204;2023-07-02T01:25:07;98805.63;;;17.15;100.00
22283;BME280;11310;51.528;21.204;2023-07-02T01:27:37;98814.44;;;17.15;100.00
22283;BME280;11310;51.528;21.204;2023-07-02T01:30:08;98812.78;;;17.14;100.00
22283;BME280;11310;51.528;21.204;2023-07-02T01:32:38;98809.28;;;17.14;100.00
22283;BME280;11310;51.528;21.204;2023-07-02T01:35:09;98800.09;;;17.08;100.00
22283;BME280;11310;51.528;21.204;2023-07-02T01:37:39;98809.00;;;17.07;100.00
22283;BME280;11310;51.528;21.204;2023-07-02T01:40:10;98805.41;;;17.08;100.00
22283;BME280;11310;51.528;21.204;2023-07-02T01:42:40;98802.16;;;17.05;100.00
22283;BME280;11310;51.528;21.204;2023-07-02T01:45:10;98804.28;;;17.01;100.00
22283;BME280;11310;51.528;21.204;2023-07-02T01:47:39;98806.50;;;16.96;100.00
22283;BME280;11310;51.528;21.204;2023-07-02T01:50:11;98803.72;;;16.88;100.00
22283;BME280;11310;51.528;21.204;2023-07-02T01:52:43;98810.41;;;16.83;100.00
22283;BME280;11310;51.528;21.204;2023-07-02T01:55:13;98812.78;;;16.76;100.00
22283;BME280;11310;51.528;21.204;2023-07-02T01:57:45;98799.09;;;16.71;100.00
22283;BME280;11310;51.528;21.204;2023-07-02T02:00:16;98808.16;;;16.69;100.00
22283;BME280;11310;51.528;21.204;2023-07-02T02:02:45;98807.03;;;16.71;100.00
22283;BME280;11310;51.528;21.204;2023-07-02T02:05:17;98805.81;;;16.66;100.00
22283;BME280;11310;51.528;21.204;2023-07-02T02:07:49;98808.16;;;16.59;100.00
22283;BME280;11310;51.528;21.204;2023-07-02T02:10:19;98807.75;;;16.54;100.00
22283;BME280;11310;51.528;21.204;2023-07-02T02:12:49;98803.97;;;16.47;100.00
22283;BME280;11310;51.528;21.204;2023-07-02T02:15:19;98798.97;;;16.44;100.00
22283;BME280;11310;51.528;21.204;2023-07-02T02:17:49;98801.88;;;16.41;100.00
22283;BME280;11310;51.528;21.204;2023-07-02T02:20:21;98803.53;;;16.42;100.00
22283;BME280;11310;51.528;21.204;2023-07-02T02:22:51;98801.13;;;16.39;100.00
22283;BME280;11310;51.528;21.204;2023-07-02T02:25:21;98792.50;;;16.37;100.00
22283;BME280;11310;51.528;21.204;2023-07-02T02:27:50;98789.97;;;16.36;100.00
22283;BME280;11310;51.528;21.204;2023-07-02T02:30:19;98800.19;;;16.40;100.00
22283;BME280;11310;51.528;21.204;2023-07-02T02:32:48;98796.44;;;16.43;100.00
22283;BME280;11310;51.528;21.204;2023-07-02T02:35:18;98797.56;;;16.40;100.00
22283;BME280;11310;51.528;21.204;2023-07-02T02:37:48;98798.38;;;16.41;100.00
22283;BME280;11310;51.528;21.204;2023-07-02T02:40:17;98783.16;;;16.33;100.00
22283;BME280;11310;51.528;21.204;2023-07-02T02:42:45;98798.09;;;16.44;100.00
22283;BME280;11310;51.528;21.204;2023-07-02T02:45:14;98790.72;;;16.47;100.00
22283;BME280;11310;51.528;21.204;2023-07-02T02:47:43;98787.81;;;16.50;100.00
22283;BME280;11310;51.528;21.204;2023-07-02T02:50:13;98789.22;;;16.54;100.00
22283;BME280;11310;51.528;21.204;2023-07-02T02:52:43;98792.28;;;16.59;100.00
22283;BME280;11310;51.528;21.204;2023-07-02T02:55:14;98798.69;;;16.66;100.00
22283;BME280;11310;51.528;21.204;2023-07-02T02:57:42;98802.47;;;16.73;100.00
22283;BME280;11310;51.528;21.204;2023-07-02T03:00:12;98799.25;;;16.79;100.00
22283;BME280;11310;51.528;21.204;2023-07-02T03:02:41;98799.41;;;16.87;100.00
22283;BME280;11310;51.528;21.204;2023-07-02T03:05:09;98795.38;;;16.93;100.00
22283;BME280;11310;51.528;21.204;2023-07-02T03:07:40;98796.75;;;16.97;100.00
22283;BME280;11310;51.528;21.204;2023-07-02T03:10:11;98799.66;;;17.03;100.00
22283;BME280;11310;51.528;21.204;2023-07-02T03:12:42;98798.41;;;17.07;100.00
22283;BME280;11310;51.528;21.204;2023-07-02T03:15:11;98797.69;;;17.15;100.00
22283;BME280;11310;51.528;21.204;2023-07-02T03:17:41;98799.81;;;17.21;100.00
22283;BME280;11310;51.528;21.204;2023-07-02T03:20:10;98800.63;;;17.21;100.00
22283;BME280;11310;51.528;21.204;2023-07-02T03:22:40;98795.72;;;17.26;100.00
22283;BME280;11310;51.528;21.204;2023-07-02T03:25:09;98794.63;;;17.29;100.00
22283;BME280;11310;51.528;21.204;2023-07-02T03:27:38;98791.53;;;17.33;100.00
22283;BME280;11310;51.528;21.204;2023-07-02T03:30:09;98794.88;;;17.35;100.00
22283;BME280;11310;51.528;21.204;2023-07-02T03:32:38;98792.69;;;17.40;100.00
22283;BME280;11310;51.528;21.204;2023-07-02T03:35:08;98792.09;;;17.46;100.00
22283;BME280;11310;51.528;21.204;2023-07-02T03:37:38;98789.16;;;17.49;100.00
22283;BME280;11310;51.528;21.204;2023-07-02T03:40:09;98795.16;;;17.51;100.00
22283;BME280;11310;51.528;21.204;2023-07-02T03:42:38;98795.84;;;17.53;100.00
22283;BME280;11310;51.528;21.204;2023-07-02T03:45:09;98793.91;;;17.55;100.00
22283;BME280;11310;51.528;21.204;2023-07-02T03:47:38;98787.88;;;17.53;100.00
22283;BME280;11310;51.528;21.204;2023-07-02T03:50:09;98790.25;;;17.56;100.00
22283;BME280;11310;51.528;21.204;2023-07-02T03:52:39;98788.28;;;17.58;100.00
22283;BME280;11310;51.528;21.204;2023-07-02T03:55:08;98787.47;;;17.58;100.00
22283;BME280;11310;51.528;21.204;2023-07-02T03:57:38;98788.28;;;17.58;100.00
22283;BME280;11310;51.528;21.204;2023-07-02T04:00:10;98789.97;;;17.59;100.00
22283;BME280;11310;51.528;21.204;2023-07-02T04:02:42;98781.44;;;17.65;100.00
22283;BME280;11310;51.528;21.204;2023-07-02T04:05:12;98779.75;;;17.64;100.00
22283;BME280;11310;51.528;21.204;2023-07-02T04:07:41;98776.25;;;17.73;100.00
22283;BME280;11310;51.528;21.204;2023-07-02T04:10:10;98777.47;;;17.79;100.00
22283;BME280;11310;51.528;21.204;2023-07-02T04:12:39;98778.56;;;17.86;100.00
22283;BME280;11310;51.528;21.204;2023-07-02T04:15:10;98777.28;;;17.90;100.00
22283;BME280;11310;51.528;21.204;2023-07-02T04:17:39;98770.84;;;17.92;100.00
22283;BME280;11310;51.528;21.204;2023-07-02T04:20:10;98783.91;;;18.03;100.00
22283;BME280;11310;51.528;21.204;2023-07-02T04:22:40;98779.09;;;18.16;100.00
22283;BME280;11310;51.528;21.204;2023-07-02T04:25:09;98783.22;;;18.28;100.00
22283;BME280;11310;51.528;21.204;2023-07-02T04:27:53;98780.09;;;18.42;100.00
22283;BME280;11310;51.528;21.204;2023-07-02T04:30:25;98780.56;;;18.55;100.00
22283;BME280;11310;51.528;21.204;2023-07-02T04:32:55;98778.53;;;18.67;100.00
22283;BME280;11310;51.528;21.204;2023-07-02T04:35:25;98774.78;;;18.77;100.00
22283;BME280;11310;51.528;21.204;2023-07-02T04:37:54;98780.34;;;18.84;100.00
22283;BME280;11310;51.528;21.204;2023-07-02T04:40:25;98780.25;;;18.93;100.00
22283;BME280;11310;51.528;21.204;2023-07-02T04:42:55;98781.00;;;19.03;100.00
22283;BME280;11310;51.528;21.204;2023-07-02T04:45:28;98778.44;;;19.11;100.00
22283;BME280;11310;51.528;21.204;2023-07-02T04:48:03;98788.44;;;19.17;100.00
22283;BME280;11310;51.528;21.204;2023-07-02T04:50:32;98776.91;;;19.26;100.00
22283;BME280;11310;51.528;21.204;2023-07-02T04:53:01;98783.94;;;19.35;100.00
22283;BME280;11310;51.528;21.204;2023-07-02T04:55:30;98775.88;;;19.45;100.00
22283;BME280;11310;51.528;21.204;2023-07-02T04:58:00;98772.88;;;19.48;100.00
22283;BME280;11310;51.528;21.204;2023-07-02T05:00:33;98776.75;;;19.53;100.00
22283;BME280;11310;51.528;21.204;2023-07-02T05:03:03;98784.44;;;19.56;100.00
22283;BME280;11310;51.528;21.204;2023-07-02T05:05:32;98780.63;;;19.59;100.00
22283;BME280;11310;51.528;21.204;2023-07-02T05:08:02;98780.84;;;19.65;100.00
22283;BME280;11310;51.528;21.204;2023-07-02T05:10:32;98784.84;;;19.69;100.00
22283;BME280;11310;51.528;21.204;2023-07-02T05:13:01;98783.38;;;19.75;100.00
22283;BME280;11310;51.528;21.204;2023-07-02T05:15:32;98787.88;;;19.82;100.00
22283;BME280;11310;51.528;21.204;2023-07-02T05:18:01;98778.59;;;19.86;100.00
22283;BME280;11310;51.528;21.204;2023-07-02T05:20:33;98777.63;;;19.87;100.00
22283;BME280;11310;51.528;21.204;2023-07-02T05:23:02;98778.13;;;19.91;100.00
22283;BME280;11310;51.528;21.204;2023-07-02T05:25:31;98777.63;;;19.87;100.00
22283;BME280;11310;51.528;21.204;2023-07-02T05:28:04;98781.00;;;19.97;100.00
22283;BME280;11310;51.528;21.204;2023-07-02T05:30:34;98785.84;;;20.02;100.00
22283;BME280;11310;51.528;21.204;2023-07-02T05:33:03;98781.84;;;20.06;100.00
22283;BME280;11310;51.528;21.204;2023-07-02T05:35:32;98786.19;;;20.07;100.00
22283;BME280;11310;51.528;21.204;2023-07-02T05:38:01;98788.84;;;20.07;100.00
22283;BME280;11310;51.528;21.204;2023-07-02T05:40:31;98792.34;;;20.07;100.00
22283;BME280;11310;51.528;21.204;2023-07-02T05:43:00;98799.38;;;20.08;100.00
22283;BME280;11310;51.528;21.204;2023-07-02T05:45:30;98793.66;;;20.03;100.00
22283;BME280;11310;51.528;21.204;2023-07-02T05:48:04;98790.56;;;20.08;100.00
22283;BME280;11310;51.528;21.204;2023-07-02T05:50:33;98784.75;;;20.12;100.00
22283;BME280;11310;51.528;21.204;2023-07-02T05:53:02;98787.25;;;20.14;100.00
22283;BME280;11310;51.528;21.204;2023-07-02T05:55:31;98785.94;;;20.18;100.00
22283;BME280;11310;51.528;21.204;2023-07-02T05:58:01;98787.25;;;20.14;100.00
22283;BME280;11310;51.528;21.204;2023-07-02T06:00:31;98782.59;;;20.16;100.00
22283;BME280;11310;51.528;21.204;2023-07-02T06:03:04;98789.63;;;20.25;100.00
22283;BME280;11310;51.528;21.204;2023-07-02T06:05:34;98795.81;;;20.33;100.00
22283;BME280;11310;51.528;21.204;2023-07-02T06:08:04;98787.50;;;20.36;100.00
22283;BME280;11310;51.528;21.204;2023-07-02T06:10:33;98779.50;;;20.28;100.00
22283;BME280;11310;51.528;21.204;2023-07-02T06:13:02;98791.47;;;20.32;100.00
22283;BME280;11310;51.528;21.204;2023-07-02T06:15:31;98787.16;;;20.31;100.00
22283;BME280;11310;51.528;21.204;2023-07-02T06:18:02;98786.34;;;20.31;100.00
22283;BME280;11310;51.528;21.204;2023-07-02T06:20:32;98789.47;;;20.26;100.00
22283;BME280;11310;51.528;21.204;2023-07-02T06:23:01;98784.81;;;20.28;100.00
22283;BME280;11310;51.528;21.204;2023-07-02T06:25:30;98794.31;;;20.31;100.00
22283;BME280;11310;51.528;21.204;2023-07-02T06:28:00;98785.66;;;20.37;100.00
22283;BME280;11310;51.528;21.204;2023-07-02T06:30:30;98787.03;;;20.41;100.00
22283;BME280;11310;51.528;21.204;2023-07-02T06:33:01;98784.84;;;20.44;100.00
22283;BME280;11310;51.528;21.204;2023-07-02T06:35:31;98781.19;;;20.45;100.00
22283;BME280;11310;51.528;21.204;2023-07-02T06:38:00;98786.03;;;20.50;100.00
22283;BME280;11310;51.528;21.204;2023-07-02T06:40:34;98790.06;;;20.54;100.00
22283;BME280;11310;51.528;21.204;2023-07-02T06:43:03;98785.88;;;20.59;100.00
22283;BME280;11310;51.528;21.204;2023-07-02T06:45:35;98788.22;;;20.62;100.00
22283;BME280;11310;51.528;21.204;2023-07-02T06:48:05;98786.25;;;20.72;100.00
22283;BME280;11310;51.528;21.204;2023-07-02T06:50:33;98793.25;;;20.73;100.00
22283;BME280;11310;51.528;21.204;2023-07-02T06:53:02;98792.91;;;20.76;100.00
22283;BME280;11310;51.528;21.204;2023-07-02T06:55:31;98794.25;;;20.80;100.00
22283;BME280;11310;51.528;21.204;2023-07-02T06:58:00;98806.13;;;20.86;100.00
22283;BME280;11310;51.528;21.204;2023-07-02T07:00:31;98798.59;;;20.89;100.00
22283;BME280;11310;51.528;21.204;2023-07-02T07:03:02;98802.97;;;20.99;100.00
22283;BME280;11310;51.528;21.204;2023-07-02T07:05:32;98806.97;;;21.11;100.00
22283;BME280;11310;51.528;21.204;2023-07-02T07:08:01;98800.81;;;21.26;100.00
22283;BME280;11310;51.528;21.204;2023-07-02T07:10:30;98807.31;;;21.40;100.00
22283;BME280;11310;51.528;21.204;2023-07-02T07:13:01;98799.44;;;21.54;100.00
22283;BME280;11310;51.528;21.204;2023-07-02T07:15:33;98807.97;;;21.58;100.00
22283;BME280;11310;51.528;21.204;2023-07-02T07:18:03;98812.31;;;21.59;100.00
22283;BME280;11310;51.528;21.204;2023-07-02T07:20:34;98803.81;;;21.55;100.00
22283;BME280;11310;51.528;21.204;2023-07-02T07:23:03;98823.47;;;21.62;100.00
22283;BME280;11310;51.528;21.204;2023-07-02T07:25:31;98828.84;;;21.70;100.00
22283;BME280;11310;51.528;21.204;2023-07-02T07:28:00;98826.97;;;21.79;100.00
22283;BME280;11310;51.528;21.204;2023-07-02T07:30:30;98834.81;;;21.88;100.00
22283;BME280;11310;51.528;21.204;2023-07-02T07:33:01;98833.47;;;21.92;100.00
22283;BME280;11310;51.528;21.204;2023-07-02T07:35:31;98840.31;;;21.95;100.00
22283;BME280;11310;51.528;21.204;2023-07-02T07:38:01;98833.31;;;21.94;99.79
22283;BME280;11310;51.528;21.204;2023-07-02T07:40:31;98838.97;;;21.91;100.00
22283;BME280;11310;51.528;21.204;2023-07-02T07:43:01;98849.97;;;21.88;100.00
22283;BME280;11310;51.528;21.204;2023-07-02T07:45:30;98840.31;;;21.87;100.00
22283;BME280;11310;51.528;21.204;2023-07-02T07:48:00;98858.69;;;21.82;100.00
22283;BME280;11310;51.528;21.204;2023-07-02T07:50:29;98857.34;;;21.86;100.00
22283;BME280;11310;51.528;21.204;2023-07-02T07:52:59;98852.00;;;21.94;99.60
22283;BME280;11310;51.528;21.204;2023-07-02T07:55:29;98853.81;;;21.93;100.00
22283;BME280;11310;51.528;21.204;2023-07-02T07:57:59;98861.97;;;22.08;99.33
22283;BME280;11310;51.528;21.204;2023-07-02T08:00:32;98867.25;;;22.24;98.65
22283;BME280;11310;51.528;21.204;2023-07-02T08:03:02;98871.25;;;22.36;98.22
22283;BME280;11310;51.528;21.204;2023-07-02T08:05:31;98877.03;;;22.55;97.43
22283;BME280;11310;51.528;21.204;2023-07-02T08:08:01;98868.75;;;22.73;96.25
22283;BME280;11310;51.528;21.204;2023-07-02T08:10:32;98870.22;;;22.83;95.15
22283;BME280;11310;51.528;21.204;2023-07-02T08:13:01;98873.06;;;22.82;93.96
22283;BME280;11310;51.528;21.204;2023-07-02T08:15:30;98872.44;;;22.72;94.59
22283;BME280;11310;51.528;21.204;2023-07-02T08:17:59;98873.63;;;22.69;95.15
22283;BME280;11310;51.528;21.204;2023-07-02T08:20:27;98873.63;;;22.69;94.66
22283;BME280;11310;51.528;21.204;2023-07-02T08:22:58;98871.59;;;22.71;94.96
22283;BME280;11310;51.528;21.204;2023-07-02T08:25:26;98877.44;;;22.75;95.26
22283;BME280;11310;51.528;21.204;2023-07-02T08:27:57;98876.31;;;22.69;94.20
22283;BME280;11310;51.528;21.204;2023-07-02T08:30:26;98886.88;;;22.63;94.97
22283;BME280;11310;51.528;21.204;2023-07-02T08:32:56;98893.56;;;22.59;96.19
22283;BME280;11310;51.528;21.204;2023-07-02T08:35:25;98872.75;;;22.46;97.37
22283;BME280;11310;51.528;21.204;2023-07-02T08:37:55;98883.75;;;22.35;98.53
22283;BME280;11310;51.528;21.204;2023-07-02T08:40:28;98890.66;;;22.22;99.51
22283;BME280;11310;51.528;21.204;2023-07-02T08:42:59;98897.34;;;22.10;99.90
22283;BME280;11310;51.528;21.204;2023-07-02T08:45:29;98889.72;;;21.99;99.89
22283;BME280;11310;51.528;21.204;2023-07-02T08:48:00;98903.41;;;21.88;99.90
22283;BME280;11310;51.528;21.204;2023-07-02T08:50:30;98911.09;;;21.83;100.00
22283;BME280;11310;51.528;21.204;2023-07-02T08:53:00;98905.75;;;21.83;100.00
22283;BME280;11310;51.528;21.204;2023-07-02T08:55:29;98909.44;;;21.82;100.00
22283;BME280;11310;51.528;21.204;2023-07-02T08:58:00;98903.75;;;21.77;100.00
22283;BME280;11310;51.528;21.204;2023-07-02T09:00:29;98903.44;;;21.80;100.00
22283;BME280;11310;51.528;21.204;2023-07-02T09:03:13;98897.91;;;21.81;100.00
22283;BME280;11310;51.528;21.204;2023-07-02T09:05:49;98886.34;;;21.97;100.00
22283;BME280;11310;51.528;21.204;2023-07-02T09:08:28;98895.38;;;22.12;99.96
22283;BME280;11310;51.528;21.204;2023-07-02T09:11:08;98895.16;;;22.21;98.47
22283;BME280;11310;51.528;21.204;2023-07-02T09:13:48;98899.94;;;22.42;98.91
22283;BME280;11310;51.528;21.204;2023-07-02T09:16:23;98903.88;;;22.70;98.63
22283;BME280;11310;51.528;21.204;2023-07-02T09:19:00;98900.75;;;22.89;95.35
22283;BME280;11310;51.528;21.204;2023-07-02T09:21:41;98912.91;;;22.99;94.20
22283;BME280;11310;51.528;21.204;2023-07-02T09:24:15;98902.94;;;23.16;93.42
22283;BME280;11310;51.528;21.204;2023-07-02T09:26:45;98906.19;;;23.34;93.36
22283;BME280;11310;51.528;21.204;2023-07-02T09:29:21;98912.09;;;23.52;91.87
22283;BME280;11310;51.528;21.204;2023-07-02T09:31:51;98898.94;;;23.65;91.67
22283;BME280;11310;51.528;21.204;2023-07-02T09:34:37;98908.94;;;23.71;91.51
22283;BME280;11310;51.528;21.204;2023-07-02T09:37:08;98914.38;;;23.63;91.32
22283;BME280;11310;51.528;21.204;2023-07-02T09:39:37;98913.69;;;23.61;91.16
22283;BME280;11310;51.528;21.204;2023-07-02T09:42:07;98914.16;;;23.64;91.17
22283;BME280;11310;51.528;21.204;2023-07-02T09:44:43;98917.16;;;23.69;91.00
22283;BME280;11310;51.528;21.204;2023-07-02T09:47:14;98911.44;;;23.72;91.11
22283;BME280;11310;51.528;21.204;2023-07-02T09:49:48;98914.88;;;23.81;90.11
22283;BME280;11310;51.528;21.204;2023-07-02T09:52:18;98914.88;;;23.81;90.22
22283;BME280;11310;51.528;21.204;2023-07-02T09:54:47;98916.59;;;23.74;89.92
22283;BME280;11310;51.528;21.204;2023-07-02T09:57:17;98918.31;;;23.67;90.66
22283;BME280;11310;51.528;21.204;2023-07-02T09:59:48;98917.09;;;23.55;90.97
22283;BME280;11310;51.528;21.204;2023-07-02T10:02:17;98917.41;;;23.37;91.89
22283;BME280;11310;51.528;21.204;2023-07-02T10:04:47;98922.22;;;23.19;92.09
22283;BME280;11310;51.528;21.204;2023-07-02T10:07:27;98918.19;;;23.15;91.83
22283;BME280;11310;51.528;21.204;2023-07-02T10:10:00;98925.69;;;23.20;92.75
22283;BME280;11310;51.528;21.204;2023-07-02T10:12:29;98919.28;;;23.29;92.42
22283;BME280;11310;51.528;21.204;2023-07-02T10:15:02;98921.91;;;23.37;91.79
22283;BME280;11310;51.528;21.204;2023-07-02T10:17:33;98920.59;;;23.33;91.32
22283;BME280;11310;51.528;21.204;2023-07-02T10:20:04;98922.22;;;23.19;89.95
22283;BME280;11310;51.528;21.204;2023-07-02T10:22:44;98921.69;;;23.16;92.20
22283;BME280;11310;51.528;21.204;2023-07-02T10:25:24;98926.03;;;23.17;92.33
22283;BME280;11310;51.528;21.204;2023-07-02T10:27:54;98929.66;;;23.32;92.81
22283;BME280;11310;51.528;21.204;2023-07-02T10:30:35;98927.41;;;23.43;91.22
22283;BME280;11310;51.528;21.204;2023-07-02T10:33:09;98917.50;;;23.44;91.71
22283;BME280;11310;51.528;21.204;2023-07-02T10:35:38;98916.44;;;23.30;91.90
22283;BME280;11310;51.528;21.204;2023-07-02T10:38:13;98915.00;;;23.20;92.32
22283;BME280;11310;51.528;21.204;2023-07-02T10:40:43;98916.88;;;23.11;92.92
22283;BME280;11310;51.528;21.204;2023-07-02T10:43:13;98927.78;;;23.02;94.04
22283;BME280;11310;51.528;21.204;2023-07-02T10:45:45;98933.09;;;22.79;95.99
22283;BME280;11310;51.528;21.204;2023-07-02T10:48:14;98932.69;;;22.52;97.97
22283;BME280;11310;51.528;21.204;2023-07-02T10:50:44;98932.56;;;22.29;100.00
22283;BME280;11310;51.528;21.204;2023-07-02T10:53:17;98937.59;;;22.08;100.00
22283;BME280;11310;51.528;21.204;2023-07-02T10:55:53;98935.78;;;22.01;100.00
22283;BME280;11310;51.528;21.204;2023-07-02T10:58:24;98936.09;;;21.98;100.00
22283;BME280;11310;51.528;21.204;2023-07-02T11:00:54;98943.47;;;21.96;100.00
22283;BME280;11310;51.528;21.204;2023-07-02T11:03:24;98930.09;;;21.96;100.00
22283;BME280;11310;51.528;21.204;2023-07-02T11:05:55;98937.44;;;22.02;100.00
22283;BME280;11310;51.528;21.204;2023-07-02T11:08:34;98925.72;;;22.19;100.00
22283;BME280;11310;51.528;21.204;2023-07-02T11:11:07;98930.22;;;22.26;100.00
22283;BME280;11310;51.528;21.204;2023-07-02T11:13:44;98921.69;;;22.31;100.00
22283;BME280;11310;51.528;21.204;2023-07-02T11:16:20;98913.16;;;22.35;99.71
22283;BME280;11310;51.528;21.204;2023-07-02T11:19:16;98915.81;;;22.51;98.79
22283;BME280;11310;51.528;21.204;2023-07-02T11:21:52;98905.53;;;22.71;97.42
22283;BME280;11310;51.528;21.204;2023-07-02T11:24:29;98911.91;;;23.00;96.14
22283;BME280;11310;51.528;21.204;2023-07-02T11:27:02;98923.09;;;23.34;95.00
22283;BME280;11310;51.528;21.204;2023-07-02T11:29:36;98913.28;;;23.72;92.63
22283;BME280;11310;51.528;21.204;2023-07-02T11:32:12;98913.91;;;23.96;89.79
22283;BME280;11310;51.528;21.204;2023-07-02T11:34:41;98913.50;;;24.07;89.43
22283;BME280;11310;51.528;21.204;2023-07-02T11:37:11;98918.50;;;24.25;89.01
22283;BME280;11310;51.528;21.204;2023-07-02T11:39:43;98920.53;;;24.52;87.76
22283;BME280;11310;51.528;21.204;2023-07-02T11:42:11;98919.28;;;24.77;86.37
22283;BME280;11310;51.528;21.204;2023-07-02T11:44:41;98912.47;;;24.95;85.19
22283;BME280;11310;51.528;21.204;2023-07-02T11:47:12;98916.97;;;25.09;85.16
22283;BME280;11310;51.528;21.204;2023-07-02T11:49:42;98909.59;;;24.97;85.43
22283;BME280;11310;51.528;21.204;2023-07-02T11:52:11;98913.69;;;24.78;86.72
22283;BME280;11310;51.528;21.204;2023-07-02T11:54:42;98904.53;;;24.58;86.46
22283;BME280;11310;51.528;21.204;2023-07-02T11:57:11;98909.09;;;24.43;87.33
22283;BME280;11310;51.528;21.204;2023-07-02T11:59:41;98913.97;;;24.40;87.67
22283;BME280;11310;51.528;21.204;2023-07-02T12:02:15;98893.72;;;24.52;88.63
22283;BME280;11310;51.528;21.204;2023-07-02T12:04:45;98901.13;;;24.79;86.86
22283;BME280;11310;51.528;21.204;2023-07-02T12:07:14;98894.41;;;25.04;84.76
22283;BME280;11310;51.528;21.204;2023-07-02T12:09:45;98907.13;;;25.31;83.88
22283;BME280;11310;51.528;21.204;2023-07-02T12:12:14;98907.53;;;25.70;82.43
22283;BME280;11310;51.528;21.204;2023-07-02T12:14:43;98897.66;;;25.98;80.95
22283;BME280;11310;51.528;21.204;2023-07-02T12:17:18;98907.53;;;26.18;79.49
22283;BME280;11310;51.528;21.204;2023-07-02T12:19:48;98899.13;;;26.34;77.85
22283;BME280;11310;51.528;21.204;2023-07-02T12:22:19;98886.91;;;26.32;78.03
22283;BME280;11310;51.528;21.204;2023-07-02T12:24:51;98895.25;;;26.37;77.88
22283;BME280;11310;51.528;21.204;2023-07-02T12:27:21;98904.94;;;26.04;78.75
22283;BME280;11310;51.528;21.204;2023-07-02T12:29:50;98896.22;;;25.81;79.28
22283;BME280;11310;51.528;21.204;2023-07-02T12:32:24;98900.72;;;25.74;77.65
22283;BME280;11310;51.528;21.204;2023-07-02T12:34:56;98897.75;;;25.90;79.15
22283;BME280;11310;51.528;21.204;2023-07-02T12:37:25;98891.72;;;26.09;77.88
22283;BME280;11310;51.528;21.204;2023-07-02T12:39:54;98906.31;;;26.21;77.48
22283;BME280;11310;51.528;21.204;2023-07-02T12:42:25;98892.13;;;26.40;77.22
22283;BME280;11310;51.528;21.204;2023-07-02T12:44:56;98898.75;;;26.65;74.87
22283;BME280;11310;51.528;21.204;2023-07-02T12:47:27;98890.44;;;26.60;74.55
22283;BME280;11310;51.528;21.204;2023-07-02T12:49:57;98888.91;;;26.51;74.93
22283;BME280;11310;51.528;21.204;2023-07-02T12:52:28;98888.63;;;26.39;75.46
22283;BME280;11310;51.528;21.204;2023-07-02T12:54:57;98875.88;;;26.54;76.15
22283;BME280;11310;51.528;21.204;2023-07-02T12:57:27;98879.56;;;26.87;76.05
22283;BME280;11310;51.528;21.204;2023-07-02T12:59:58;98883.34;;;26.99;74.29
22283;BME280;11310;51.528;21.204;2023-07-02T13:02:36;98890.09;;;26.76;72.56
22283;BME280;11310;51.528;21.204;2023-07-02T13:05:30;98878.19;;;26.23;76.55
22283;BME280;11310;51.528;21.204;2023-07-02T13:08:04;98885.16;;;25.90;77.69
22283;BME280;11310;51.528;21.204;2023-07-02T13:10:37;98891.31;;;25.84;78.05
22283;BME280;11310;51.528;21.204;2023-07-02T13:13:10;98881.91;;;25.95;77.21
22283;BME280;11310;51.528;21.204;2023-07-02T13:15:51;98887.56;;;25.79;77.04
22283;BME280;11310;51.528;21.204;2023-07-02T13:18:39;98889.44;;;25.57;74.36